createdAt,value
2022-08-17T00:01:15.761Z,25.34
2022-08-17T00:03:45.538Z,25.32
2022-08-17T00:06:19.378Z,25.30
2022-08-17T00:08:47.535Z,25.29
2022-08-17T00:11:19.279Z,25.34
2022-08-17T00:13:47.813Z,25.36
2022-08-17T00:16:16.592Z,25.39
2022-08-17T00:19:02.140Z,25.39
2022-08-17T00:21:59.966Z,25.37
2022-08-17T00:24:16.800Z,25.34
2022-08-17T00:26:45.052Z,25.31
2022-08-17T00:29:19.564Z,25.29
2022-08-17T00:31:46.397Z,25.27
2022-08-17T00:34:12.908Z,25.21
2022-08-17T00:36:39.461Z,25.19
2022-08-17T00:39:06.008Z,25.19
2022-08-17T00:41:32.661Z,25.14
2022-08-17T00:44:01.218Z,25.09
2022-08-17T00:46:30.178Z,25.07
2022-08-17T00:48:57.504Z,25.08
2022-08-17T00:51:31.123Z,25.11
2022-08-17T00:54:04.696Z,25.11
2022-08-17T00:56:36.646Z,25.14
2022-08-17T00:59:05.262Z,25.02
2022-08-17T01:01:32.736Z,25.00
2022-08-17T01:04:00.224Z,25.01
2022-08-17T01:06:28.336Z,24.98
2022-08-17T01:08:57.556Z,24.97
2022-08-17T01:11:24.479Z,24.91
2022-08-17T01:13:51.283Z,24.87
2022-08-17T01:16:26.449Z,24.86
2022-08-17T01:18:58.657Z,24.85
2022-08-17T01:21:28.270Z,24.84
2022-08-17T01:23:55.536Z,24.82
2022-08-17T01:26:22.840Z,24.80
2022-08-17T01:28:54.686Z,24.76
2022-08-17T01:31:23.280Z,24.74
2022-08-17T01:33:49.856Z,24.75
2022-08-17T01:36:16.465Z,24.73
2022-08-17T01:38:43.386Z,24.71
2022-08-17T01:41:12.529Z,24.68
2022-08-17T01:43:51.373Z,24.70
2022-08-17T01:46:28.938Z,24.65
2022-08-17T01:48:56.446Z,24.63
2022-08-17T01:51:24.912Z,24.62
2022-08-17T01:53:52.848Z,24.59
2022-08-17T01:56:22.171Z,24.56
2022-08-17T01:58:49.097Z,24.52
2022-08-17T02:01:17.880Z,24.44
2022-08-17T02:03:53.260Z,24.41
2022-08-17T02:06:27.484Z,24.39
2022-08-17T02:09:01.451Z,24.39
2022-08-17T02:11:31.325Z,24.40
2022-08-17T02:14:02.362Z,24.39
2022-08-17T02:16:37.387Z,24.38
2022-08-17T02:19:09.465Z,24.35
2022-08-17T02:21:36.863Z,24.35
2022-08-17T02:24:04.517Z,24.36
2022-08-17T02:26:31.999Z,24.37
2022-08-17T02:28:58.777Z,24.35
2022-08-17T02:31:25.343Z,24.39
2022-08-17T02:34:00.389Z,24.37
2022-08-17T02:36:31.071Z,24.38
2022-08-17T02:38:58.756Z,24.40
2022-08-17T02:41:25.445Z,24.44
2022-08-17T02:43:52.265Z,24.46
2022-08-17T02:46:19.512Z,24.45
2022-08-17T02:48:46.025Z,24.44
2022-08-17T02:51:12.687Z,24.46
2022-08-17T02:53:39.192Z,24.44
2022-08-17T02:56:05.831Z,24.39
2022-08-17T02:58:34.567Z,24.42
2022-08-17T03:01:03.722Z,24.38
2022-08-17T03:03:30.227Z,24.35
2022-08-17T03:05:56.948Z,24.35
2022-08-17T03:08:23.854Z,24.37
2022-08-17T03:10:50.565Z,24.40
2022-08-17T03:13:17.646Z,24.38
2022-08-17T03:15:45.215Z,24.37
2022-08-17T03:18:24.243Z,24.35
2022-08-17T03:20:56.542Z,24.35
2022-08-17T03:23:24.283Z,24.30
2022-08-17T03:25:53.312Z,24.26
2022-08-17T03:28:20.459Z,24.25
2022-08-17T03:30:47.126Z,24.25
2022-08-17T03:33:13.715Z,24.26
2022-08-17T03:35:40.545Z,24.23
2022-08-17T03:38:07.888Z,24.18
2022-08-17T03:40:57.135Z,24.13
2022-08-17T03:43:25.330Z,24.06
2022-08-17T03:46:27.152Z,24.01
2022-08-17T03:49:15.724Z,24.01
2022-08-17T03:52:00.889Z,24.02
2022-08-17T03:54:46.226Z,24.00
2022-08-17T03:57:13.143Z,23.96
2022-08-17T03:59:39.647Z,23.96
2022-08-17T04:02:18.177Z,23.93
2022-08-17T04:04:44.769Z,23.94
2022-08-17T04:07:11.566Z,24.03
2022-08-17T04:09:38.173Z,24.13
2022-08-17T04:12:05.306Z,24.20
2022-08-17T04:14:36.726Z,24.24
2022-08-17T04:17:19.735Z,24.21
2022-08-17T04:19:46.715Z,24.22
2022-08-17T04:22:30.954Z,24.25
2022-08-17T04:25:00.122Z,24.25
2022-08-17T04:27:27.279Z,24.29
2022-08-17T04:29:54.585Z,24.32
2022-08-17T04:32:58.586Z,24.29
2022-08-17T04:35:08.569Z,24.17
2022-08-17T04:37:35.119Z,24.08
2022-08-17T04:40:20.360Z,24.07
2022-08-17T04:43:01.010Z,24.08
2022-08-17T04:45:27.661Z,24.11
2022-08-17T04:47:59.760Z,24.24
2022-08-17T04:50:26.337Z,24.37
2022-08-17T04:52:52.896Z,24.40
2022-08-17T04:55:19.438Z,24.50
2022-08-17T04:57:46.044Z,24.59
2022-08-17T05:00:13.019Z,24.63
2022-08-17T05:02:50.742Z,24.69
2022-08-17T05:05:29.361Z,24.71
2022-08-17T05:08:00.884Z,24.78
2022-08-17T05:10:29.540Z,24.78
2022-08-17T05:13:00.984Z,24.76
2022-08-17T05:15:28.692Z,24.67
2022-08-17T05:17:59.876Z,24.64
2022-08-17T05:20:27.261Z,24.63
2022-08-17T05:22:55.413Z,24.60
2022-08-17T05:25:24.992Z,24.58
2022-08-17T05:27:53.221Z,24.38
2022-08-17T05:30:19.875Z,24.38
2022-08-17T05:32:55.583Z,24.21
2022-08-17T05:35:22.841Z,23.94
2022-08-17T05:37:49.540Z,23.91
2022-08-17T05:40:16.218Z,23.87
2022-08-17T05:42:43.044Z,23.93
2022-08-17T05:45:10.663Z,24.15
2022-08-17T05:47:38.418Z,24.19
2022-08-17T05:50:09.599Z,24.10
2022-08-17T05:52:50.489Z,24.17
2022-08-17T05:55:25.510Z,24.19
2022-08-17T05:58:12.243Z,24.06
2022-08-17T06:01:01.834Z,23.97
2022-08-17T06:03:31.470Z,24.02
2022-08-17T06:05:57.964Z,24.10
2022-08-17T06:08:53.987Z,24.14
2022-08-17T06:11:26.905Z,24.20
2022-08-17T06:14:12.723Z,24.18
2022-08-17T06:16:41.415Z,24.39
2022-08-17T06:19:23.037Z,24.37
2022-08-17T06:21:52.705Z,24.19
2022-08-17T06:24:28.583Z,24.34
2022-08-17T06:27:05.112Z,24.52
2022-08-17T06:29:50.442Z,24.61
2022-08-17T06:32:17.276Z,24.51
2022-08-17T06:34:45.029Z,24.35
2022-08-17T06:37:37.996Z,24.21
2022-08-17T06:40:10.882Z,24.23
2022-08-17T06:43:06.576Z,24.21
2022-08-17T06:45:31.797Z,24.28
2022-08-17T06:47:58.266Z,24.25
2022-08-17T06:50:27.715Z,24.13
2022-08-17T06:52:57.574Z,24.08
2022-08-17T06:55:28.463Z,24.05
2022-08-17T06:57:57.992Z,24.12
2022-08-17T07:00:27.940Z,24.33
2022-08-17T07:02:55.280Z,24.31
2022-08-17T07:05:25.563Z,24.29
2022-08-17T07:08:02.799Z,24.33
2022-08-17T07:10:38.107Z,24.44
2022-08-17T07:13:33.988Z,24.57
2022-08-17T07:16:20.814Z,24.57
2022-08-17T07:18:49.895Z,24.60
2022-08-17T07:21:38.447Z,24.60
2022-08-17T07:24:28.104Z,24.39
2022-08-17T07:27:14.545Z,24.49
2022-08-17T07:29:46.853Z,24.60
2022-08-17T07:32:17.866Z,24.65
2022-08-17T07:35:23.168Z,24.62
2022-08-17T07:38:24.638Z,24.32
2022-08-17T07:40:57.686Z,24.43
2022-08-17T07:43:26.131Z,24.62
2022-08-17T07:46:19.622Z,24.74
2022-08-17T07:48:51.359Z,24.79
2022-08-17T07:51:28.789Z,24.88
2022-08-17T07:54:13.534Z,24.75
2022-08-17T07:56:44.410Z,24.58
2022-08-17T07:59:12.963Z,24.83
2022-08-17T08:01:42.558Z,25.25
2022-08-17T08:04:49.981Z,25.62
2022-08-17T08:07:34.836Z,25.91
2022-08-17T08:10:07.989Z,25.46
2022-08-17T08:12:34.648Z,25.14
2022-08-17T08:15:09.411Z,24.95
2022-08-17T08:17:45.363Z,25.01
2022-08-17T08:20:37.573Z,25.09
2022-08-17T08:23:18.749Z,24.96
2022-08-17T08:26:03.345Z,24.85
2022-08-17T08:28:33.963Z,24.79
2022-08-17T08:31:15.610Z,24.94
2022-08-17T08:33:56.293Z,25.00
2022-08-17T08:37:12.855Z,24.96
2022-08-17T08:39:30.989Z,24.96
2022-08-17T08:42:08.345Z,25.00
2022-08-17T08:44:59.796Z,25.11
2022-08-17T08:47:41.545Z,25.08
2022-08-17T08:50:37.414Z,25.06
2022-08-17T08:53:04.481Z,25.02
2022-08-17T08:55:49.153Z,25.05
2022-08-17T08:58:31.923Z,25.16
2022-08-17T09:01:17.229Z,25.30
2022-08-17T09:04:20.016Z,25.48
2022-08-17T09:07:08.843Z,25.34
2022-08-17T09:09:38.966Z,25.38
2022-08-17T09:12:13.930Z,25.58
2022-08-17T09:14:47.318Z,25.80
2022-08-17T09:17:25.335Z,26.03
2022-08-17T09:20:00.157Z,26.27
2022-08-17T09:22:42.979Z,26.51
2022-08-17T09:25:09.651Z,26.75
2022-08-17T09:27:53.744Z,27.08
2022-08-17T09:30:21.471Z,27.77
2022-08-17T09:32:55.314Z,28.25
2022-08-17T09:35:24.197Z,28.38
2022-08-17T09:38:05.657Z,28.28
2022-08-17T09:40:32.191Z,28.07
2022-08-17T09:42:58.712Z,27.86
2022-08-17T09:45:31.609Z,27.67
2022-08-17T09:48:02.384Z,27.60
2022-08-17T09:51:03.709Z,27.57
2022-08-17T09:53:22.728Z,27.54
2022-08-17T09:56:04.471Z,27.66
2022-08-17T09:58:49.815Z,27.70
2022-08-17T10:01:29.330Z,27.60
2022-08-17T10:04:04.982Z,27.49
2022-08-17T10:06:34.549Z,27.38
2022-08-17T10:09:08.740Z,27.18
2022-08-17T10:12:06.336Z,26.93
2022-08-17T10:14:37.887Z,26.68
2022-08-17T10:17:20.468Z,26.52
2022-08-17T10:19:58.570Z,26.47
2022-08-17T10:22:54.819Z,26.46
2022-08-17T10:25:56.501Z,26.48
2022-08-17T10:28:29.701Z,26.46
2022-08-17T10:31:23.445Z,26.39
2022-08-17T10:34:04.853Z,26.30
2022-08-17T10:36:54.921Z,26.24
2022-08-17T10:39:27.684Z,26.21
2022-08-17T10:41:57.491Z,26.20
2022-08-17T10:44:43.981Z,26.27
2022-08-17T10:47:14.994Z,26.34
2022-08-17T10:49:47.780Z,26.38
2022-08-17T10:52:21.704Z,26.48
2022-08-17T10:54:49.115Z,26.61
2022-08-17T10:57:28.063Z,26.60
2022-08-17T10:59:55.731Z,26.55
2022-08-17T11:02:26.034Z,26.75
2022-08-17T11:05:11.718Z,26.87
2022-08-17T11:07:48.184Z,27.02
2022-08-17T11:10:17.879Z,27.29
2022-08-17T11:12:55.452Z,27.42
2022-08-17T11:15:37.213Z,27.73
2022-08-17T11:18:10.167Z,28.45
2022-08-17T11:20:57.995Z,30.84
2022-08-17T11:23:24.876Z,32.06
2022-08-17T11:25:56.409Z,34.07
2022-08-17T11:28:28.891Z,36.86
2022-08-17T11:30:57.678Z,37.75
2022-08-17T11:33:38.175Z,39.46
2022-08-17T11:36:23.503Z,39.82
2022-08-17T11:38:57.908Z,40.04
2022-08-17T11:41:30.484Z,40.34
2022-08-17T11:44:04.682Z,40.78
2022-08-17T11:47:08.618Z,40.69
2022-08-17T11:50:03.061Z,41.26
2022-08-17T11:52:35.757Z,40.87
2022-08-17T11:55:33.524Z,39.67
2022-08-17T11:58:13.935Z,38.10
2022-08-17T12:00:46.632Z,37.19
2022-08-17T12:03:24.749Z,35.70
2022-08-17T12:06:00.269Z,33.80
2022-08-17T12:08:30.425Z,33.71
2022-08-17T12:11:03.382Z,33.27
2022-08-17T12:13:38.451Z,33.03
2022-08-17T12:16:07.351Z,32.63
2022-08-17T12:18:39.691Z,32.02
2022-08-17T12:21:13.357Z,31.50
2022-08-17T12:23:52.684Z,31.15
2022-08-17T12:26:22.638Z,30.88
2022-08-17T12:28:51.964Z,30.17
2022-08-17T12:31:29.807Z,29.54
2022-08-17T12:33:56.548Z,28.97
2022-08-17T12:36:25.046Z,28.69
2022-08-17T12:38:57.219Z,28.93
2022-08-17T12:41:30.701Z,29.11
2022-08-17T12:44:01.652Z,29.20
2022-08-17T12:46:29.313Z,29.42
2022-08-17T12:49:14.208Z,29.20
2022-08-17T12:51:47.538Z,29.16
2022-08-17T12:54:25.954Z,29.35
2022-08-17T12:56:52.926Z,29.29
2022-08-17T12:59:29.952Z,29.05
2022-08-17T13:01:57.387Z,29.10
2022-08-17T13:04:24.599Z,29.17
2022-08-17T13:06:59.602Z,29.55
2022-08-17T13:09:36.018Z,30.08
2022-08-17T13:12:07.776Z,30.66
2022-08-17T13:14:35.147Z,31.07
2022-08-17T13:17:02.245Z,31.48
2022-08-17T13:19:40.284Z,31.76
2022-08-17T13:22:11.293Z,31.66
2022-08-17T13:24:38.537Z,31.36
2022-08-17T13:27:08.649Z,31.10
2022-08-17T13:29:38.922Z,31.01
2022-08-17T13:32:13.731Z,30.80
2022-08-17T13:35:12.198Z,30.50
2022-08-17T13:37:32.888Z,30.14
2022-08-17T13:40:11.772Z,30.05
2022-08-17T13:42:51.904Z,29.96
2022-08-17T13:45:35.563Z,29.78
2022-08-17T13:48:23.858Z,29.86
2022-08-17T13:50:56.574Z,29.91
2022-08-17T13:53:25.592Z,29.70
2022-08-17T13:55:55.229Z,29.58
2022-08-17T13:58:23.895Z,29.42
2022-08-17T14:00:51.709Z,29.46
2022-08-17T14:03:19.041Z,29.52
2022-08-17T14:05:46.056Z,29.61
2022-08-17T14:08:14.336Z,29.63
2022-08-17T14:10:41.665Z,29.84
2022-08-17T14:13:08.327Z,29.93
2022-08-17T14:15:55.133Z,29.94
2022-08-17T14:18:55.518Z,29.85
2022-08-17T14:21:09.407Z,29.86
2022-08-17T14:23:36.914Z,30.09
2022-08-17T14:26:03.604Z,30.08
2022-08-17T14:28:30.197Z,30.11
2022-08-17T14:30:58.731Z,30.22
2022-08-17T14:33:25.293Z,30.27
2022-08-17T14:35:55.892Z,30.45
2022-08-17T14:38:22.499Z,30.68
2022-08-17T14:40:49.294Z,30.78
2022-08-17T14:43:16.060Z,30.59
2022-08-17T14:45:43.376Z,30.37
2022-08-17T14:48:10.645Z,30.03
2022-08-17T14:50:39.545Z,29.78
2022-08-17T14:53:07.276Z,29.73
2022-08-17T14:55:34.762Z,29.88
2022-08-17T14:58:01.790Z,30.09
2022-08-17T15:00:28.729Z,30.26
2022-08-17T15:02:56.502Z,30.30
2022-08-17T15:05:24.640Z,30.33
2022-08-17T15:07:52.799Z,30.39
2022-08-17T15:10:20.003Z,30.61
2022-08-17T15:12:46.662Z,30.81
2022-08-17T15:15:14.820Z,30.93
2022-08-17T15:17:45.898Z,30.86
2022-08-17T15:20:17.345Z,30.69
2022-08-17T15:22:44.912Z,30.63
2022-08-17T15:25:12.122Z,30.66
2022-08-17T15:27:38.697Z,30.42
2022-08-17T15:30:07.179Z,30.30
2022-08-17T15:32:35.116Z,30.01
2022-08-17T15:35:03.373Z,29.95
2022-08-17T15:37:31.872Z,30.01
2022-08-17T15:40:00.757Z,30.17
2022-08-17T15:42:27.379Z,30.12
2022-08-17T15:44:55.276Z,30.02
2022-08-17T15:47:23.236Z,30.04
2022-08-17T15:49:50.842Z,30.18
2022-08-17T15:52:24.906Z,30.33
2022-08-17T15:54:52.889Z,30.29
2022-08-17T15:57:19.743Z,30.27
2022-08-17T15:59:47.188Z,30.19
2022-08-17T16:03:44.681Z,30.18
2022-08-17T16:05:14.989Z,30.24
2022-08-17T16:07:44.322Z,30.20
2022-08-17T16:10:16.743Z,30.05
2022-08-17T16:12:46.214Z,30.01
2022-08-17T16:15:13.874Z,29.97
2022-08-17T16:17:41.484Z,29.94
2022-08-17T16:20:09.267Z,29.88
2022-08-17T16:22:46.583Z,29.84
2022-08-17T16:25:15.002Z,29.78
2022-08-17T16:27:43.449Z,29.72
2022-08-17T16:30:16.443Z,29.73
2022-08-17T16:32:43.875Z,29.63
2022-08-17T16:35:11.955Z,29.55
2022-08-17T16:37:41.284Z,29.55
2022-08-17T16:40:12.799Z,29.62
2022-08-17T16:42:39.819Z,29.64
2022-08-17T16:45:12.956Z,29.65
2022-08-17T16:47:44.264Z,29.66
2022-08-17T16:50:12.628Z,29.65
2022-08-17T16:52:39.924Z,29.64
2022-08-17T16:55:07.902Z,29.53
2022-08-17T16:57:35.003Z,29.42
2022-08-17T17:00:01.656Z,29.40
2022-08-17T17:02:39.093Z,29.41
2022-08-17T17:05:09.544Z,29.44
2022-08-17T17:07:40.679Z,29.43
2022-08-17T17:10:12.764Z,29.40
2022-08-17T17:13:01.350Z,29.33
2022-08-17T17:15:28.415Z,29.22
2022-08-17T17:17:57.702Z,29.22
2022-08-17T17:20:31.286Z,29.20
2022-08-17T17:23:00.935Z,29.20
2022-08-17T17:25:48.846Z,29.21
2022-08-17T17:28:40.502Z,29.20
2022-08-17T17:31:13.180Z,29.17
2022-08-17T17:33:47.370Z,29.10
2022-08-17T17:36:22.944Z,29.01
2022-08-17T17:38:54.670Z,28.95
2022-08-17T17:41:26.427Z,28.93
2022-08-17T17:44:02.816Z,28.90
2022-08-17T17:46:33.362Z,28.89
2022-08-17T17:49:00.108Z,28.85
2022-08-17T17:52:03.556Z,28.81
2022-08-17T17:54:32.367Z,28.77
2022-08-17T17:57:21.331Z,28.74
2022-08-17T18:00:03.801Z,28.66
2022-08-17T18:02:51.434Z,28.62
2022-08-17T18:05:51.285Z,28.57
2022-08-17T18:08:31.951Z,28.50
2022-08-17T18:11:06.544Z,28.46
2022-08-17T18:13:36.391Z,28.44
2022-08-17T18:16:04.017Z,28.34
2022-08-17T18:18:37.648Z,28.31
2022-08-17T18:21:07.651Z,28.30
2022-08-17T18:23:34.273Z,28.27
2022-08-17T18:26:01.996Z,28.24
2022-08-17T18:28:41.057Z,28.20
2022-08-17T18:31:07.616Z,28.18
2022-08-17T18:33:34.717Z,28.12
2022-08-17T18:36:01.720Z,28.07
2022-08-17T18:38:31.367Z,28.03
2022-08-17T18:41:00.376Z,27.97
2022-08-17T18:43:53.475Z,27.95
2022-08-17T18:46:29.896Z,27.95
2022-08-17T18:48:59.471Z,27.92
2022-08-17T18:51:41.520Z,27.91
2022-08-17T18:54:17.868Z,27.87
2022-08-17T18:56:52.132Z,27.81
2022-08-17T18:59:23.192Z,27.73
2022-08-17T19:02:15.479Z,27.61
2022-08-17T19:04:47.027Z,27.52
2022-08-17T19:07:16.810Z,27.47
2022-08-17T19:09:47.047Z,27.45
2022-08-17T19:12:26.435Z,27.45
2022-08-17T19:14:56.023Z,27.44
2022-08-17T19:17:25.666Z,27.42
2022-08-17T19:19:56.545Z,27.40
2022-08-17T19:22:31.005Z,27.38
2022-08-17T19:25:09.323Z,27.36
2022-08-17T19:27:41.748Z,27.35
2022-08-17T19:30:14.493Z,27.33
2022-08-17T19:32:41.309Z,27.36
2022-08-17T19:35:13.616Z,27.35
2022-08-17T19:37:47.082Z,27.35
2022-08-17T19:40:41.817Z,27.39
2022-08-17T19:43:26.566Z,27.41
2022-08-17T19:46:11.642Z,27.43
2022-08-17T19:48:53.653Z,27.44
2022-08-17T19:51:40.944Z,27.39
2022-08-17T19:54:26.959Z,27.31
2022-08-17T19:57:02.764Z,27.28
2022-08-17T19:59:35.966Z,27.24
2022-08-17T20:02:19.711Z,27.20
2022-08-17T20:04:48.026Z,27.16
2022-08-17T20:07:26.298Z,27.12
2022-08-17T20:10:02.427Z,27.07
2022-08-17T20:12:37.552Z,27.03
2022-08-17T20:15:24.342Z,27.01
2022-08-17T20:17:51.796Z,27.00
2022-08-17T20:20:37.539Z,27.00
2022-08-17T20:23:12.959Z,27.00
2022-08-17T20:25:54.876Z,26.99
2022-08-17T20:28:34.950Z,26.99
2022-08-17T20:31:02.919Z,26.99
2022-08-17T20:33:31.799Z,26.95
2022-08-17T20:36:17.439Z,26.92
2022-08-17T20:38:46.378Z,26.88
2022-08-17T20:41:21.687Z,26.87
2022-08-17T20:43:51.136Z,26.86
2022-08-17T20:46:23.577Z,26.86
2022-08-17T20:48:52.663Z,26.84
2022-08-17T20:52:01.185Z,26.83
2022-08-17T20:54:44.178Z,26.80
2022-08-17T20:57:31.333Z,26.71
2022-08-17T21:00:14.264Z,26.62
2022-08-17T21:02:46.667Z,26.60
2022-08-17T21:05:30.358Z,26.59
2022-08-17T21:07:58.702Z,26.55
2022-08-17T21:10:25.397Z,26.49
2022-08-17T21:13:07.210Z,26.46
2022-08-17T21:15:38.993Z,26.44
2022-08-17T21:18:06.643Z,26.40
2022-08-17T21:20:45.961Z,26.36
2022-08-17T21:23:12.584Z,26.27
2022-08-17T21:25:39.114Z,26.25
2022-08-17T21:28:07.121Z,26.24
2022-08-17T21:30:33.648Z,26.23
2022-08-17T21:33:16.684Z,26.20
2022-08-17T21:36:02.093Z,26.19
2022-08-17T21:38:38.157Z,26.16
2022-08-17T21:41:04.835Z,26.08
2022-08-17T21:43:36.451Z,25.99
2022-08-17T21:46:03.052Z,25.99
2022-08-17T21:48:32.206Z,26.00
2022-08-17T21:51:10.388Z,26.01
2022-08-17T21:53:37.106Z,25.98
2022-08-17T21:56:03.990Z,25.92
2022-08-17T21:58:32.601Z,25.86
2022-08-17T22:01:10.010Z,25.82
2022-08-17T22:03:37.532Z,25.72
2022-08-17T22:06:20.979Z,25.66
2022-08-17T22:08:57.723Z,25.55
2022-08-17T22:11:24.397Z,25.53
2022-08-17T22:13:51.390Z,25.53
2022-08-17T22:16:29.514Z,25.56
2022-08-17T22:18:58.377Z,25.58
2022-08-17T22:21:25.547Z,25.60
2022-08-17T22:24:06.622Z,25.62
2022-08-17T22:26:52.023Z,25.65
2022-08-17T22:29:37.563Z,25.70
2022-08-17T22:32:04.166Z,25.75
2022-08-17T22:34:30.767Z,25.81
2022-08-17T22:37:16.278Z,25.89
2022-08-17T22:39:43.126Z,25.94
2022-08-17T22:42:13.724Z,25.93
2022-08-17T22:44:48.127Z,25.94
2022-08-17T22:47:14.635Z,25.93
2022-08-17T22:49:54.146Z,25.94
2022-08-17T22:52:29.951Z,25.89
2022-08-17T22:55:47.169Z,25.88
2022-08-17T22:58:34.053Z,25.88
2022-08-17T23:01:20.504Z,25.86
2022-08-17T23:03:54.625Z,25.89
2022-08-17T23:06:24.425Z,25.92
2022-08-17T23:08:56.278Z,25.87
2022-08-17T23:11:42.815Z,25.78
2022-08-17T23:14:15.345Z,25.77
2022-08-17T23:16:44.864Z,25.77
2022-08-17T23:19:12.793Z,25.78
2022-08-17T23:21:39.493Z,25.78
2022-08-17T23:24:07.461Z,25.71
2022-08-17T23:26:36.106Z,25.63
2022-08-17T23:29:04.487Z,25.47
